ΕΜΥ, Εθνική Μετεωρολογική Υπηρεσία - Δελτία Καιρού, Προγνώσεις

ΑΕΡΟΝΑΥΤΙΛΙΑ

GREEK AIRPORTS CODES

TAF LGKF 301100Z 3012/3021 VRB05KT 9999 SCT018 BKN030 BECMG 3013/3015 33015KT=

EUROPEAN AIRPORTS CODES